Mr Aries — V7ML4 — position and weather

sailwx.info

Track history (hours):
 
Tides and Currents Weather Stations Pressure Air Temp Water Temp Dewpoint Dewpoint Depression Visibility Wind Speed Wind Dir Waves Ship Positions

Mr Aries

Last reported at 2018-May-02 12:52 UTC. Time now 2018-May-25 01:11 UTC.
Position N 37°44' W 122°46'.
Warning: this ship's position is 22 days out of date.

Length 183 m; draft 11.4 m.

Type: Ship. MMSI: 538002869.

Date/timePositionNaut miles runAvg speedWind from/ knotsBaromVisibWave heightAir tempDewpointWater temp
2018-May-02 12:52N 37°44' W 122°46'4 5.2
2018-May-02 12:08N 37°44' W 122°41'1 8.9
2018-May-02 11:59N 37°45' W 122°40'5 9.9
2018-May-02 11:31N 37°47' W 122°35'612.6
2018-May-02 11:00N 37°50' W 122°28'4 7.4
2018-May-02 10:30N 37°53' W 122°26'5 9.7
2018-May-02 09:59N 37°59' W 122°26'  
2018-Apr-29 04:37N 38°02' W 122°23'313.1
2018-Apr-29 04:25N 37°60' W 122°25'512.9
2018-Apr-29 04:00N 37°55' W 122°27'611.8
2018-Apr-29 03:30N 37°49' W 122°24'5 9.9
2018-Apr-29 02:59N 37°45' W 122°21'3 5.0
2018-Apr-29 02:29N 37°43' W 122°20'0 0.1
2018-Apr-29 00:44N 37°43' W 122°20'0 0.1
2018-Apr-29 00:17N 37°43' W 122°20'0 0.2
2018-Apr-28 23:59N 37°43' W 122°20'0 0.1
2018-Apr-28 23:26N 37°43' W 122°20'0 0.0
2018-Apr-28 21:29N 37°43' W 122°20'0 0.0
2018-Apr-28 20:59N 37°43' W 122°20'0 0.1
2018-Apr-28 19:17N 37°43' W 122°20'0 0.1
2018-Apr-28 18:53N 37°43' W 122°20'0 0.0
2018-Apr-28 16:05N 37°43' W 122°20'0 0.1
2018-Apr-28 15:53N 37°42' W 122°20'0 0.0
2018-Apr-28 14:11N 37°43' W 122°20'0 0.0
2018-Apr-28 13:56N 37°43' W 122°20'0 0.2
2018-Apr-28 12:59N 37°43' W 122°20'0 0.1
2018-Apr-28 12:29N 37°43' W 122°20'0 0.0
2018-Apr-28 11:59N 37°43' W 122°20'0 0.0
2018-Apr-28 11:29N 37°43' W 122°20'0 0.0
2018-Apr-28 10:59N 37°43' W 122°20'0 0.0
2018-Apr-28 10:29N 37°43' W 122°20'0 0.0
2018-Apr-28 09:59N 37°43' W 122°20'0 0.0
2018-Apr-28 09:20N 37°43' W 122°20'0 0.0
2018-Apr-28 08:56N 37°43' W 122°20'0 0.0
2018-Apr-28 08:17N 37°43' W 122°20'0 0.1
2018-Apr-28 05:41N 37°43' W 122°20'0 0.0
2018-Apr-28 05:29N 37°43' W 122°20'0 0.0
2018-Apr-28 02:08N 37°43' W 122°20'0 0.1
2018-Apr-27 23:56N 37°43' W 122°20'0 0.0
2018-Apr-27 21:23N 37°43' W 122°20'0 0.0
2018-Apr-27 20:59N 37°43' W 122°20'0 0.1
2018-Apr-27 20:26N 37°43' W 122°20'0 0.1
2018-Apr-27 17:50N 37°42' W 122°20'0 0.0
2018-Apr-27 17:29N 37°42' W 122°20'0 0.0
2018-Apr-27 16:38N 37°42' W 122°20'0 0.0
2018-Apr-27 11:59N 37°43' W 122°20'0 0.0
2018-Apr-27 11:29N 37°43' W 122°20'0 0.1
2018-Apr-27 10:59N 37°43' W 122°20'0 0.0
2018-Apr-27 10:20N 37°43' W 122°20'0 0.0
2018-Apr-27 09:50N 37°43' W 122°20'0 0.0
2018-Apr-27 09:26N 37°43' W 122°20'0 0.0
2018-Apr-27 08:59N 37°43' W 122°20'0 0.1
2018-Apr-27 08:29N 37°43' W 122°20'0 0.0
2018-Apr-26 09:41N 37°43' W 122°20'0 0.0
2018-Apr-26 09:29N 37°43' W 122°20'0 0.0
2018-Apr-26 08:59N 37°43' W 122°20'1 1.3
2018-Apr-26 08:30N 37°43' W 122°20'4 8.6
2018-Apr-26 08:00N 37°47' W 122°22'4 8.5
2018-Apr-26 07:30N 37°49' W 122°27'16 9.9
2018-Apr-26 05:52N 37°47' W 122°48'5 8.7
2018-Apr-26 05:21N 37°49' W 122°53'4 9.5
2018-Apr-26 04:57N 37°51' W 122°57'2 3.7
2018-Apr-26 04:30N 37°52' W 122°59'3 5.7
2018-Apr-26 04:00N 37°53' W 123°02'3 5.8
2018-Apr-26 03:30N 37°55' W 123°05'5 7.0
2018-Apr-26 02:47N 37°57' W 123°10'2 8.4
2018-Apr-26 02:30N 37°59' W 123°12'5 8.9
2018-Apr-26 01:58N 38°03' W 123°16'4 8.8
2018-Apr-26 01:30N 38°06' W 123°19'4 8.7
2018-Apr-26 01:00N 38°09' W 123°24'4 8.7
2018-Apr-26 00:30N 38°11' W 123°29'1210.2
2018-Apr-25 23:16N 38°16' W 123°43'310.3
2018-Apr-25 23:00N 38°17' W 123°46'413 9.7
2018-Apr-24 04:25N 44°54' W 126°20'512.1
2018-Apr-24 04:00N 44°59' W 126°20'712.4
2018-Apr-24 03:26N 45°06' W 126°20'512.5
2018-Apr-24 03:00N 45°12' W 126°20'612.4
2018-Apr-24 02:30N 45°18' W 126°20'612.1
2018-Apr-24 02:00N 45°24' W 126°20'19711.8
2018-Apr-23 09:16N 48°31' W 124°51'413.4
2018-Apr-23 09:01N 48°31' W 124°46'713.5
2018-Apr-23 08:31N 48°29' W 124°37'1013.2
2018-Apr-23 07:46N 48°25' W 124°23'  
Track history (hours):
 
Tides and Currents Weather Stations Pressure Air Temp Water Temp Dewpoint Dewpoint Depression Visibility Wind Speed Wind Dir Waves Ship Positions

Mr Aries

Last reported at 2018-May-02 12:52 UTC. Time now 2018-May-25 01:11 UTC.
Position N 37°44' W 122°46'.
Warning: this ship's position is 22 days out of date.

Length 183 m; draft 11.4 m.

Type: Ship. MMSI: 538002869.

Date/timePositionNaut miles runAvg speedWind from/ knotsBaromVisibWave heightAir tempDewpointWater temp
2018-May-02 12:52N 37°44' W 122°46'4 5.2
2018-May-02 12:08N 37°44' W 122°41'1 8.9
2018-May-02 11:59N 37°45' W 122°40'5 9.9
2018-May-02 11:31N 37°47' W 122°35'612.6
2018-May-02 11:00N 37°50' W 122°28'4 7.4
2018-May-02 10:30N 37°53' W 122°26'5 9.7
2018-May-02 09:59N 37°59' W 122°26'  
2018-Apr-29 04:37N 38°02' W 122°23'313.1
2018-Apr-29 04:25N 37°60' W 122°25'512.9
2018-Apr-29 04:00N 37°55' W 122°27'611.8
2018-Apr-29 03:30N 37°49' W 122°24'5 9.9
2018-Apr-29 02:59N 37°45' W 122°21'3 5.0
2018-Apr-29 02:29N 37°43' W 122°20'0 0.1
2018-Apr-29 00:44N 37°43' W 122°20'0 0.1
2018-Apr-29 00:17N 37°43' W 122°20'0 0.2
2018-Apr-28 23:59N 37°43' W 122°20'0 0.1
2018-Apr-28 23:26N 37°43' W 122°20'0 0.0
2018-Apr-28 21:29N 37°43' W 122°20'0 0.0
2018-Apr-28 20:59N 37°43' W 122°20'0 0.1
2018-Apr-28 19:17N 37°43' W 122°20'0 0.1
2018-Apr-28 18:53N 37°43' W 122°20'0 0.0
2018-Apr-28 16:05N 37°43' W 122°20'0 0.1
2018-Apr-28 15:53N 37°42' W 122°20'0 0.0
2018-Apr-28 14:11N 37°43' W 122°20'0 0.0
2018-Apr-28 13:56N 37°43' W 122°20'0 0.2
2018-Apr-28 12:59N 37°43' W 122°20'0 0.1
2018-Apr-28 12:29N 37°43' W 122°20'0 0.0
2018-Apr-28 11:59N 37°43' W 122°20'0 0.0
2018-Apr-28 11:29N 37°43' W 122°20'0 0.0
2018-Apr-28 10:59N 37°43' W 122°20'0 0.0
2018-Apr-28 10:29N 37°43' W 122°20'0 0.0
2018-Apr-28 09:59N 37°43' W 122°20'0 0.0
2018-Apr-28 09:20N 37°43' W 122°20'0 0.0
2018-Apr-28 08:56N 37°43' W 122°20'0 0.0
2018-Apr-28 08:17N 37°43' W 122°20'0 0.1
2018-Apr-28 05:41N 37°43' W 122°20'0 0.0
2018-Apr-28 05:29N 37°43' W 122°20'0 0.0
2018-Apr-28 02:08N 37°43' W 122°20'0 0.1
2018-Apr-27 23:56N 37°43' W 122°20'0 0.0
2018-Apr-27 21:23N 37°43' W 122°20'0 0.0
2018-Apr-27 20:59N 37°43' W 122°20'0 0.1
2018-Apr-27 20:26N 37°43' W 122°20'0 0.1
2018-Apr-27 17:50N 37°42' W 122°20'0 0.0
2018-Apr-27 17:29N 37°42' W 122°20'0 0.0
2018-Apr-27 16:38N 37°42' W 122°20'0 0.0
2018-Apr-27 11:59N 37°43' W 122°20'0 0.0
2018-Apr-27 11:29N 37°43' W 122°20'0 0.1
2018-Apr-27 10:59N 37°43' W 122°20'0 0.0
2018-Apr-27 10:20N 37°43' W 122°20'0 0.0
2018-Apr-27 09:50N 37°43' W 122°20'0 0.0
2018-Apr-27 09:26N 37°43' W 122°20'0 0.0
2018-Apr-27 08:59N 37°43' W 122°20'0 0.1
2018-Apr-27 08:29N 37°43' W 122°20'0 0.0
2018-Apr-26 09:41N 37°43' W 122°20'0 0.0
2018-Apr-26 09:29N 37°43' W 122°20'0 0.0
2018-Apr-26 08:59N 37°43' W 122°20'1 1.3
2018-Apr-26 08:30N 37°43' W 122°20'4 8.6
2018-Apr-26 08:00N 37°47' W 122°22'4 8.5
2018-Apr-26 07:30N 37°49' W 122°27'16 9.9
2018-Apr-26 05:52N 37°47' W 122°48'5 8.7
2018-Apr-26 05:21N 37°49' W 122°53'4 9.5
2018-Apr-26 04:57N 37°51' W 122°57'2 3.7
2018-Apr-26 04:30N 37°52' W 122°59'3 5.7
2018-Apr-26 04:00N 37°53' W 123°02'3 5.8
2018-Apr-26 03:30N 37°55' W 123°05'5 7.0
2018-Apr-26 02:47N 37°57' W 123°10'2 8.4
2018-Apr-26 02:30N 37°59' W 123°12'5 8.9
2018-Apr-26 01:58N 38°03' W 123°16'4 8.8
2018-Apr-26 01:30N 38°06' W 123°19'4 8.7
2018-Apr-26 01:00N 38°09' W 123°24'4 8.7
2018-Apr-26 00:30N 38°11' W 123°29'1210.2
2018-Apr-25 23:16N 38°16' W 123°43'310.3
2018-Apr-25 23:00N 38°17' W 123°46'413 9.7
2018-Apr-24 04:25N 44°54' W 126°20'512.1
2018-Apr-24 04:00N 44°59' W 126°20'712.4
2018-Apr-24 03:26N 45°06' W 126°20'512.5
2018-Apr-24 03:00N 45°12' W 126°20'612.4
2018-Apr-24 02:30N 45°18' W 126°20'612.1
2018-Apr-24 02:00N 45°24' W 126°20'19711.8
2018-Apr-23 09:16N 48°31' W 124°51'413.4
2018-Apr-23 09:01N 48°31' W 124°46'713.5
2018-Apr-23 08:31N 48°29' W 124°37'1013.2
2018-Apr-23 07:46N 48°25' W 124°23'  

Dump ship's entire track history